createdAt,value
2022-08-20T00:01:06.914Z,19.10
2022-08-20T00:03:40.202Z,23.27
2022-08-20T00:06:19.543Z,21.27
2022-08-20T00:08:47.444Z,20.88
2022-08-20T00:11:21.358Z,19.92
2022-08-20T00:13:55.275Z,22.60
2022-08-20T00:16:24.945Z,20.85
2022-08-20T00:18:52.108Z,24.67
2022-08-20T00:21:21.052Z,20.23
2022-08-20T00:23:53.433Z,21.40
2022-08-20T00:26:21.049Z,22.13
2022-08-20T00:28:48.528Z,23.27
2022-08-20T00:31:19.472Z,21.48
2022-08-20T00:33:47.448Z,24.00
2022-08-20T00:36:17.433Z,22.92
2022-08-20T00:38:47.140Z,22.37
2022-08-20T00:41:20.771Z,20.80
2022-08-20T00:44:12.773Z,23.83
2022-08-20T00:46:41.912Z,22.77
2022-08-20T00:49:14.885Z,22.25
2022-08-20T00:52:10.021Z,23.07
2022-08-20T00:54:50.486Z,22.88
2022-08-20T00:57:44.519Z,21.23
2022-08-20T01:00:30.838Z,21.55
2022-08-20T01:03:00.468Z,22.83
2022-08-20T01:05:29.877Z,23.07
2022-08-20T01:07:58.293Z,24.73
2022-08-20T01:10:30.082Z,21.33
2022-08-20T01:12:59.884Z,23.85
2022-08-20T01:15:31.758Z,23.73
2022-08-20T01:18:01.795Z,26.10
2022-08-20T01:20:34.719Z,23.98
2022-08-20T01:23:29.972Z,24.27
2022-08-20T01:26:04.700Z,25.45
2022-08-20T01:29:04.007Z,24.17
2022-08-20T01:31:39.211Z,25.60
2022-08-20T01:34:11.151Z,45.42
2022-08-20T01:36:46.308Z,66.25
2022-08-20T01:39:22.989Z,75.18
2022-08-20T01:42:06.608Z,81.32
2022-08-20T01:44:36.287Z,42.67
2022-08-20T01:47:25.290Z,58.30
2022-08-20T01:50:01.302Z,54.63
2022-08-20T01:52:46.697Z,42.33
2022-08-20T01:55:14.563Z,28.85
2022-08-20T01:57:41.624Z,37.47
2022-08-20T02:00:14.633Z,37.08
2022-08-20T02:02:47.224Z,44.72
2022-08-20T02:05:14.273Z,38.70
2022-08-20T02:07:41.436Z,39.88
2022-08-20T02:10:12.793Z,37.17
2022-08-20T02:12:40.194Z,43.95
2022-08-20T02:15:10.917Z,67.47
2022-08-20T02:17:40.531Z,40.58
2022-08-20T02:20:13.733Z,26.17
2022-08-20T02:22:50.088Z,31.47
2022-08-20T02:25:19.824Z,61.67
2022-08-20T02:27:52.711Z,37.97
2022-08-20T02:30:29.512Z,34.10
2022-08-20T02:32:57.969Z,31.00
2022-08-20T02:35:25.518Z,31.73
2022-08-20T02:37:53.923Z,42.22
2022-08-20T02:40:30.644Z,35.28
2022-08-20T02:42:59.731Z,25.90
2022-08-20T02:45:27.381Z,27.58
2022-08-20T02:47:56.623Z,36.13
2022-08-20T02:50:26.866Z,29.65
2022-08-20T02:52:54.790Z,33.13
2022-08-20T02:55:27.432Z,45.38
2022-08-20T02:57:58.750Z,24.85
2022-08-20T03:00:32.250Z,30.80
2022-08-20T03:03:08.892Z,23.08
2022-08-20T03:05:39.681Z,25.73
2022-08-20T03:08:09.622Z,27.75
2022-08-20T03:10:39.168Z,32.15
2022-08-20T03:13:11.169Z,27.37
2022-08-20T03:15:41.419Z,27.17
2022-08-20T03:18:08.796Z,26.33
2022-08-20T03:20:36.331Z,26.90
2022-08-20T03:23:04.483Z,25.88
2022-08-20T03:25:31.668Z,29.37
2022-08-20T03:27:58.803Z,28.35
2022-08-20T03:30:28.157Z,31.33
2022-08-20T03:32:56.072Z,26.13
2022-08-20T03:35:26.543Z,22.35
2022-08-20T03:37:54.870Z,22.10
2022-08-20T03:40:32.585Z,26.85
2022-08-20T03:43:00.263Z,19.90
2022-08-20T03:45:29.789Z,25.13
2022-08-20T03:47:57.985Z,30.77
2022-08-20T03:50:28.666Z,22.67
2022-08-20T03:52:57.589Z,22.15
2022-08-20T03:55:26.037Z,22.90
2022-08-20T03:58:02.088Z,25.65
2022-08-20T04:00:51.763Z,20.73
2022-08-20T04:03:19.354Z,22.00
2022-08-20T04:05:46.823Z,23.10
2022-08-20T04:08:26.256Z,21.42
2022-08-20T04:10:57.506Z,29.02
2022-08-20T04:13:26.329Z,19.10
2022-08-20T04:15:55.489Z,21.97
2022-08-20T04:18:25.679Z,20.30
2022-08-20T04:20:53.927Z,18.02
2022-08-20T04:23:22.085Z,21.13
2022-08-20T04:25:49.769Z,18.83
2022-08-20T04:28:25.217Z,21.43
2022-08-20T04:30:52.996Z,21.88
2022-08-20T04:33:33.296Z,18.02
2022-08-20T04:36:02.679Z,21.83
2022-08-20T04:38:47.800Z,17.83
2022-08-20T04:41:23.731Z,21.90
2022-08-20T04:43:53.906Z,22.85
2022-08-20T04:46:25.323Z,20.77
2022-08-20T04:48:52.355Z,21.15
2022-08-20T04:51:23.157Z,20.50
2022-08-20T04:53:53.720Z,18.27
2022-08-20T04:56:28.219Z,24.15
2022-08-20T04:58:59.040Z,23.00
2022-08-20T05:01:27.045Z,23.25
2022-08-20T05:03:55.461Z,20.35
2022-08-20T05:06:26.189Z,19.50
2022-08-20T05:08:55.752Z,19.33
2022-08-20T05:11:33.088Z,17.15
2022-08-20T05:14:05.785Z,18.85
2022-08-20T05:16:37.731Z,19.75
2022-08-20T05:19:06.707Z,16.23
2022-08-20T05:21:33.922Z,19.38
2022-08-20T05:24:02.759Z,15.27
2022-08-20T05:26:29.664Z,17.15
2022-08-20T05:28:58.661Z,15.48
2022-08-20T05:31:33.281Z,16.23
2022-08-20T05:34:09.801Z,19.10
2022-08-20T05:36:48.239Z,15.20
2022-08-20T05:39:21.647Z,16.52
2022-08-20T05:41:50.820Z,17.23
2022-08-20T05:44:19.393Z,17.57
2022-08-20T05:46:47.915Z,13.32
2022-08-20T05:49:19.940Z,20.00
2022-08-20T05:51:47.774Z,16.67
2022-08-20T05:54:15.547Z,17.52
2022-08-20T05:56:42.875Z,18.67
2022-08-20T05:59:10.764Z,19.73
2022-08-20T06:01:40.481Z,18.23
2022-08-20T06:04:24.497Z,16.25
2022-08-20T06:07:11.739Z,17.45
2022-08-20T06:09:38.993Z,16.40
2022-08-20T06:12:09.201Z,18.20
2022-08-20T06:14:36.415Z,20.15
2022-08-20T06:17:13.245Z,18.73
2022-08-20T06:19:44.507Z,16.48
2022-08-20T06:22:20.723Z,17.67
2022-08-20T06:24:53.787Z,16.75
2022-08-20T06:27:21.172Z,14.77
2022-08-20T06:29:49.205Z,20.65
2022-08-20T06:32:16.399Z,19.23
2022-08-20T06:34:50.323Z,15.20
2022-08-20T06:37:23.206Z,17.33
2022-08-20T06:39:54.888Z,14.93
2022-08-20T06:42:22.252Z,14.00
2022-08-20T06:44:50.210Z,13.80
2022-08-20T06:47:20.519Z,13.87
2022-08-20T06:49:48.607Z,13.98
2022-08-20T06:52:18.461Z,13.50
2022-08-20T06:54:46.280Z,14.27
2022-08-20T06:57:13.631Z,12.48
2022-08-20T06:59:41.840Z,19.07
2022-08-20T07:02:08.951Z,11.27
2022-08-20T07:04:37.350Z,11.65
2022-08-20T07:07:04.818Z,11.02
2022-08-20T07:09:31.743Z,17.02
2022-08-20T07:11:58.671Z,13.37
2022-08-20T07:14:26.021Z,10.32
2022-08-20T07:16:53.001Z,10.75
2022-08-20T07:19:19.924Z,11.32
2022-08-20T07:21:48.023Z,13.57
2022-08-20T07:24:14.976Z,13.67
2022-08-20T07:26:41.942Z,13.98
2022-08-20T07:29:08.877Z,11.13
2022-08-20T07:31:54.423Z,11.20
2022-08-20T07:34:21.374Z,11.45
2022-08-20T07:36:48.771Z,9.90
2022-08-20T07:39:15.869Z,17.02
2022-08-20T07:41:43.972Z,15.02
2022-08-20T07:44:30.894Z,13.00
2022-08-20T07:46:59.659Z,11.55
2022-08-20T07:49:26.567Z,12.73
2022-08-20T07:51:53.468Z,12.75
2022-08-20T07:54:20.380Z,10.93
2022-08-20T07:56:47.772Z,12.18
2022-08-20T07:59:16.717Z,13.60
2022-08-20T08:01:43.640Z,15.20
2022-08-20T08:04:10.553Z,11.13
2022-08-20T08:06:37.539Z,12.90
2022-08-20T08:09:08.496Z,14.40
2022-08-20T08:11:39.360Z,15.50
2022-08-20T08:14:09.987Z,13.43
2022-08-20T08:16:37.883Z,9.88
2022-08-20T08:19:09.113Z,12.48
2022-08-20T08:21:36.283Z,16.20
2022-08-20T08:24:03.854Z,17.55
2022-08-20T08:26:30.925Z,9.17
2022-08-20T08:28:58.337Z,12.55
2022-08-20T08:31:26.005Z,10.57
2022-08-20T08:33:53.261Z,12.35
2022-08-20T08:36:20.195Z,9.10
2022-08-20T08:38:47.644Z,17.57
2022-08-20T08:41:25.196Z,12.38
2022-08-20T08:43:54.129Z,13.02
2022-08-20T08:46:26.575Z,10.85
2022-08-20T08:48:57.737Z,11.90
2022-08-20T08:51:39.910Z,10.23
2022-08-20T08:54:09.087Z,10.65
2022-08-20T08:56:36.656Z,13.25
2022-08-20T08:59:08.806Z,10.95
2022-08-20T09:01:54.948Z,14.10
2022-08-20T09:04:37.092Z,10.70
2022-08-20T09:07:10.820Z,13.02
2022-08-20T09:09:42.126Z,11.52
2022-08-20T09:12:14.379Z,6.47
2022-08-20T09:14:41.448Z,11.65
2022-08-20T09:17:08.803Z,10.37
2022-08-20T09:19:35.834Z,12.70
2022-08-20T09:22:19.244Z,9.45
2022-08-20T09:24:46.208Z,8.50
2022-08-20T09:27:13.397Z,13.10
2022-08-20T09:29:40.648Z,9.73
2022-08-20T09:32:22.179Z,11.93
2022-08-20T09:34:55.820Z,10.75
2022-08-20T09:37:25.823Z,8.73
2022-08-20T09:39:53.225Z,7.15
2022-08-20T09:42:24.959Z,10.40
2022-08-20T09:44:52.369Z,11.93
2022-08-20T09:47:19.515Z,8.77
2022-08-20T09:49:46.895Z,6.80
2022-08-20T09:52:27.897Z,8.90
2022-08-20T09:55:05.175Z,8.07
2022-08-20T09:57:32.919Z,11.00
2022-08-20T10:00:05.364Z,7.85
2022-08-20T10:02:32.271Z,7.00
2022-08-20T10:04:59.208Z,9.55
2022-08-20T10:07:26.219Z,10.23
2022-08-20T10:09:53.156Z,8.43
2022-08-20T10:12:20.078Z,9.35
2022-08-20T10:14:47.098Z,7.38
2022-08-20T10:17:14.058Z,8.30
2022-08-20T10:19:41.207Z,8.40
2022-08-20T10:22:08.206Z,8.85
2022-08-20T10:24:35.916Z,8.35
2022-08-20T10:27:03.091Z,7.50
2022-08-20T10:29:31.083Z,7.72
2022-08-20T10:32:12.309Z,9.93
2022-08-20T10:34:41.644Z,8.27
2022-08-20T10:37:10.477Z,9.95
2022-08-20T10:39:37.542Z,10.20
2022-08-20T10:42:04.759Z,11.50
2022-08-20T10:44:31.781Z,10.10
2022-08-20T10:46:58.837Z,12.43
2022-08-20T10:49:25.772Z,12.98
2022-08-20T10:51:52.740Z,10.13
2022-08-20T10:54:19.676Z,8.05
2022-08-20T10:56:46.584Z,9.57
2022-08-20T10:59:13.548Z,8.38
2022-08-20T11:01:40.553Z,9.07
2022-08-20T11:04:07.510Z,10.30
2022-08-20T11:06:34.446Z,11.55
2022-08-20T11:09:01.384Z,11.00
2022-08-20T11:11:29.091Z,11.15
2022-08-20T11:13:56.043Z,10.05
2022-08-20T11:16:23.396Z,11.77
2022-08-20T11:18:50.313Z,9.23
2022-08-20T11:21:17.251Z,8.33
2022-08-20T11:23:44.184Z,10.43
2022-08-20T11:26:22.459Z,7.38
2022-08-20T11:28:49.430Z,8.40
2022-08-20T11:31:16.359Z,9.02
2022-08-20T11:33:43.273Z,10.63
2022-08-20T11:36:10.252Z,11.27
2022-08-20T11:38:37.200Z,13.35
2022-08-20T11:41:04.145Z,9.30
2022-08-20T11:43:31.067Z,10.30
2022-08-20T11:45:58.213Z,8.70
2022-08-20T11:48:25.176Z,8.90
2022-08-20T11:50:52.298Z,6.53
2022-08-20T11:53:19.228Z,9.63
2022-08-20T11:55:47.340Z,8.77
2022-08-20T11:58:14.796Z,9.17
2022-08-20T12:00:42.003Z,9.20
2022-08-20T12:03:10.385Z,8.55
2022-08-20T12:05:42.688Z,9.13
2022-08-20T12:08:26.893Z,10.35
2022-08-20T12:10:57.413Z,9.10
2022-08-20T12:13:30.557Z,10.75
2022-08-20T12:16:12.706Z,13.48
2022-08-20T12:18:39.624Z,10.68
2022-08-20T12:21:06.714Z,10.13
2022-08-20T12:23:33.719Z,5.83
2022-08-20T12:26:03.208Z,11.57
2022-08-20T12:28:31.858Z,10.13
2022-08-20T12:30:59.335Z,13.48
2022-08-20T12:33:26.566Z,9.13
2022-08-20T12:35:53.636Z,9.73
2022-08-20T12:38:20.870Z,8.70
2022-08-20T12:40:47.920Z,11.35
2022-08-20T12:43:14.975Z,10.55
2022-08-20T12:45:41.941Z,11.63
2022-08-20T12:48:12.245Z,11.30
2022-08-20T12:50:42.687Z,9.35
2022-08-20T12:53:09.958Z,11.45
2022-08-20T12:55:37.471Z,10.55
2022-08-20T12:58:07.785Z,8.88
2022-08-20T13:00:43.997Z,10.63
2022-08-20T13:03:13.880Z,9.45
2022-08-20T13:05:41.660Z,9.82
2022-08-20T13:08:11.921Z,15.48
2022-08-20T13:10:45.236Z,14.20
2022-08-20T13:13:15.077Z,10.53
2022-08-20T13:15:44.797Z,12.38
2022-08-20T13:18:11.760Z,10.55
2022-08-20T13:20:38.776Z,9.80
2022-08-20T13:23:06.408Z,8.25
2022-08-20T13:25:34.455Z,11.00
2022-08-20T13:28:04.367Z,10.50
2022-08-20T13:30:34.469Z,12.50
2022-08-20T13:33:02.329Z,10.48
2022-08-20T13:35:30.306Z,14.20
2022-08-20T13:37:57.294Z,12.07
2022-08-20T13:40:24.328Z,11.75
2022-08-20T13:42:51.486Z,11.43
2022-08-20T13:45:18.561Z,11.18
2022-08-20T13:47:45.660Z,12.52
2022-08-20T13:50:17.996Z,11.97
2022-08-20T13:52:55.986Z,11.73
2022-08-20T13:55:26.785Z,12.63
2022-08-20T13:57:56.639Z,9.10
2022-08-20T14:00:31.849Z,12.68
2022-08-20T14:03:01.120Z,12.13
2022-08-20T14:05:29.285Z,13.25
2022-08-20T14:08:03.904Z,12.07
2022-08-20T14:10:32.872Z,10.95
2022-08-20T14:13:00.680Z,13.23
2022-08-20T14:15:27.636Z,9.73
2022-08-20T14:17:57.040Z,10.50
2022-08-20T14:20:29.167Z,11.35
2022-08-20T14:22:57.668Z,10.63
2022-08-20T14:25:26.855Z,10.00
2022-08-20T14:27:55.345Z,10.57
2022-08-20T14:30:28.246Z,10.88
2022-08-20T14:32:56.026Z,10.75
2022-08-20T14:35:23.472Z,10.63
2022-08-20T14:37:53.869Z,13.35
2022-08-20T14:40:23.349Z,11.37
2022-08-20T14:42:51.658Z,9.10
2022-08-20T14:45:21.757Z,8.85
2022-08-20T14:47:53.949Z,9.38
2022-08-20T14:50:32.477Z,10.32
2022-08-20T14:53:00.312Z,10.47
2022-08-20T14:55:35.781Z,14.27
2022-08-20T14:58:08.664Z,10.20
2022-08-20T15:00:35.816Z,8.93
2022-08-20T15:03:02.982Z,9.02
2022-08-20T15:05:30.440Z,15.10
2022-08-20T15:07:58.619Z,13.88
2022-08-20T15:10:31.510Z,10.35
2022-08-20T15:13:00.115Z,15.50
2022-08-20T15:15:27.528Z,10.00
2022-08-20T15:18:00.169Z,13.57
2022-08-20T15:20:31.118Z,11.25
2022-08-20T15:22:58.510Z,11.27
2022-08-20T15:25:37.041Z,10.38
2022-08-20T15:28:08.371Z,10.05
2022-08-20T15:30:37.488Z,12.97
2022-08-20T15:33:04.737Z,11.10
2022-08-20T15:35:31.813Z,10.57
2022-08-20T15:37:59.557Z,10.73
2022-08-20T15:40:30.528Z,8.48
2022-08-20T15:42:59.347Z,8.30
2022-08-20T15:45:26.956Z,14.93
2022-08-20T15:48:06.426Z,10.13
2022-08-20T15:50:57.828Z,12.00
2022-08-20T15:53:48.117Z,9.23
2022-08-20T15:56:20.934Z,11.13
2022-08-20T15:59:20.834Z,9.25
2022-08-20T16:02:37.339Z,11.60
2022-08-20T16:05:37.617Z,9.85
2022-08-20T16:08:53.865Z,8.38
2022-08-20T16:11:38.381Z,11.90
2022-08-20T16:14:23.341Z,10.10
2022-08-20T16:17:01.098Z,15.77
2022-08-20T16:19:41.436Z,15.10
2022-08-20T16:22:14.265Z,8.32
2022-08-20T16:24:41.189Z,9.57
2022-08-20T16:27:34.538Z,9.57
2022-08-20T16:30:07.123Z,9.13
2022-08-20T16:32:42.025Z,10.52
2022-08-20T16:35:35.900Z,8.98
2022-08-20T16:38:12.391Z,14.47
2022-08-20T16:40:54.091Z,8.27
2022-08-20T16:43:39.979Z,12.57
2022-08-20T16:46:22.240Z,8.55
2022-08-20T16:48:57.853Z,7.70
2022-08-20T16:51:51.678Z,8.77
2022-08-20T16:54:28.265Z,7.85
2022-08-20T16:57:03.750Z,10.85
2022-08-20T16:59:31.959Z,14.88
2022-08-20T17:02:07.243Z,10.45
2022-08-20T17:04:58.670Z,8.43
2022-08-20T17:07:52.862Z,10.20
2022-08-20T17:10:27.780Z,8.20
2022-08-20T17:12:59.836Z,8.70
2022-08-20T17:15:35.039Z,8.68
2022-08-20T17:18:27.373Z,9.50
2022-08-20T17:21:23.420Z,10.10
2022-08-20T17:24:01.527Z,9.98
2022-08-20T17:26:41.520Z,9.88
2022-08-20T17:29:23.584Z,10.30
2022-08-20T17:31:55.468Z,9.47
2022-08-20T17:34:31.526Z,12.90
2022-08-20T17:37:08.131Z,7.72
2022-08-20T17:39:35.155Z,9.18
2022-08-20T17:42:15.656Z,8.32
2022-08-20T17:44:53.214Z,8.37
2022-08-20T17:47:33.410Z,13.15
2022-08-20T17:50:31.438Z,11.20
2022-08-20T17:53:26.035Z,10.65
2022-08-20T17:56:01.371Z,9.52
2022-08-20T17:59:03.779Z,8.30
2022-08-20T18:01:34.444Z,10.73
2022-08-20T18:04:01.478Z,12.63
2022-08-20T18:07:03.360Z,8.15
2022-08-20T18:09:51.006Z,9.23
2022-08-20T18:12:34.056Z,10.13
2022-08-20T18:15:37.115Z,10.43
2022-08-20T18:18:31.776Z,9.52
2022-08-20T18:21:39.219Z,9.15
2022-08-20T18:24:13.054Z,7.45
2022-08-20T18:26:52.250Z,7.80
2022-08-20T18:29:27.441Z,11.30
2022-08-20T18:32:03.068Z,9.90
2022-08-20T18:34:29.926Z,11.52
2022-08-20T18:37:06.550Z,11.52
2022-08-20T18:39:40.560Z,9.77
2022-08-20T18:42:28.032Z,7.25
2022-08-20T18:44:57.115Z,11.60
2022-08-20T18:47:33.950Z,7.60
2022-08-20T18:50:18.268Z,8.90
2022-08-20T18:52:52.951Z,7.73
2022-08-20T18:55:36.733Z,7.28
2022-08-20T18:58:09.612Z,8.52
2022-08-20T19:00:49.920Z,9.57
2022-08-20T19:03:28.503Z,8.70
2022-08-20T19:06:16.488Z,7.37
2022-08-20T19:09:01.019Z,8.25
2022-08-20T19:12:00.289Z,11.00
2022-08-20T19:14:54.408Z,11.00
2022-08-20T19:18:05.220Z,6.93
2022-08-20T19:20:36.290Z,7.20
2022-08-20T19:23:24.800Z,13.10
2022-08-20T19:25:56.684Z,8.77
2022-08-20T19:28:32.356Z,11.88
2022-08-20T19:31:30.062Z,10.65
2022-08-20T19:34:23.962Z,11.63
2022-08-20T19:37:35.519Z,9.45
2022-08-20T19:40:03.216Z,8.80
2022-08-20T19:42:40.763Z,11.95
2022-08-20T19:45:31.493Z,11.70
2022-08-20T19:48:33.788Z,8.83
2022-08-20T19:51:37.247Z,9.10
2022-08-20T19:54:22.053Z,9.10
2022-08-20T19:56:49.132Z,18.80
2022-08-20T19:59:22.418Z,19.70
2022-08-20T20:02:02.792Z,17.70
2022-08-20T20:04:41.058Z,15.40
2022-08-20T20:07:28.473Z,16.65
2022-08-20T20:09:59.156Z,22.45
2022-08-20T20:12:26.264Z,19.52
2022-08-20T20:14:55.279Z,16.67
2022-08-20T20:17:29.038Z,20.17
2022-08-20T20:20:03.848Z,18.25
2022-08-20T20:22:49.684Z,16.55
2022-08-20T20:25:27.005Z,18.17
2022-08-20T20:27:58.700Z,15.40
2022-08-20T20:30:33.519Z,16.63
2022-08-20T20:33:18.856Z,13.27
2022-08-20T20:35:47.089Z,15.30
2022-08-20T20:38:35.356Z,15.70
2022-08-20T20:41:05.323Z,12.27
2022-08-20T20:43:39.656Z,12.75
2022-08-20T20:46:24.075Z,12.02
2022-08-20T20:49:19.784Z,13.82
2022-08-20T20:52:28.502Z,9.75
2022-08-20T20:55:14.274Z,13.33
2022-08-20T20:57:41.368Z,11.98
2022-08-20T21:00:13.875Z,13.88
2022-08-20T21:02:41.345Z,11.70
2022-08-20T21:05:08.821Z,10.38
2022-08-20T21:07:51.859Z,12.87
2022-08-20T21:10:23.374Z,11.77
2022-08-20T21:12:53.093Z,11.55
2022-08-20T21:15:22.867Z,12.63
2022-08-20T21:17:51.139Z,10.52
2022-08-20T21:20:18.767Z,12.23
2022-08-20T21:22:45.734Z,11.55
2022-08-20T21:25:13.300Z,12.13
2022-08-20T21:27:45.931Z,10.68
2022-08-20T21:30:14.184Z,12.82
2022-08-20T21:32:41.259Z,14.70
2022-08-20T21:35:09.904Z,12.23
2022-08-20T21:37:37.243Z,11.30
2022-08-20T21:40:06.753Z,13.70
2022-08-20T21:42:37.098Z,13.35
2022-08-20T21:45:08.268Z,13.57
2022-08-20T21:47:36.122Z,11.60
2022-08-20T21:50:04.292Z,10.68
2022-08-20T21:52:31.262Z,13.13
2022-08-20T21:54:58.156Z,10.95
2022-08-20T21:57:30.041Z,10.30
2022-08-20T21:59:58.635Z,10.43
2022-08-20T22:02:26.050Z,9.88
2022-08-20T22:04:54.411Z,10.88
2022-08-20T22:07:22.324Z,11.63
2022-08-20T22:09:49.332Z,9.23
2022-08-20T22:12:23.440Z,12.68
2022-08-20T22:14:50.757Z,10.63
2022-08-20T22:17:17.707Z,12.38
2022-08-20T22:19:45.231Z,11.57
2022-08-20T22:22:14.420Z,12.50
2022-08-20T22:24:42.363Z,12.55
2022-08-20T22:27:09.517Z,12.20
2022-08-20T22:29:36.532Z,13.57
2022-08-20T22:32:04.507Z,11.13
2022-08-20T22:34:34.440Z,11.97
2022-08-20T22:37:03.754Z,10.48
2022-08-20T22:39:30.812Z,16.40
2022-08-20T22:41:58.011Z,10.55
2022-08-20T22:44:25.326Z,16.63
2022-08-20T22:46:57.167Z,11.07
2022-08-20T22:49:30.660Z,13.00
2022-08-20T22:51:58.036Z,11.27
2022-08-20T22:54:25.632Z,13.27
2022-08-20T22:56:54.590Z,14.55
2022-08-20T22:59:22.212Z,14.43
2022-08-20T23:01:51.347Z,13.77
2022-08-20T23:04:32.656Z,14.35
2022-08-20T23:07:01.412Z,10.60
2022-08-20T23:09:29.122Z,14.18
2022-08-20T23:11:57.465Z,14.07
2022-08-20T23:14:26.837Z,11.20
2022-08-20T23:17:13.711Z,11.32
2022-08-20T23:19:43.437Z,9.52
2022-08-20T23:22:11.612Z,9.48
2022-08-20T23:24:39.382Z,10.80
2022-08-20T23:27:08.285Z,9.65
2022-08-20T23:29:35.581Z,8.15
2022-08-20T23:32:02.852Z,9.27
2022-08-20T23:34:29.866Z,10.50
2022-08-20T23:36:57.879Z,12.20
2022-08-20T23:39:26.130Z,8.07
2022-08-20T23:41:54.445Z,10.60
2022-08-20T23:44:26.243Z,10.45
2022-08-20T23:46:58.201Z,11.75
2022-08-20T23:49:26.737Z,8.07
2022-08-20T23:51:53.785Z,10.68
2022-08-20T23:54:20.876Z,10.55
2022-08-20T23:56:47.866Z,9.13
2022-08-20T23:59:14.815Z,9.25
